createdAt,value
2022-09-10T00:00:44.780Z,101133.87
2022-09-10T00:01:45.359Z,101136.47
2022-09-10T00:02:45.589Z,101135.65
2022-09-10T00:03:45.913Z,101135.3
2022-09-10T00:04:46.131Z,101131.88
2022-09-10T00:05:46.950Z,101132.23
2022-09-10T00:06:46.858Z,101132.28
2022-09-10T00:07:47.174Z,101130.86
2022-09-10T00:08:47.762Z,101134.97
2022-09-10T00:09:47.902Z,101131.91
2022-09-10T00:10:50.945Z,101134.17
2022-09-10T00:11:48.526Z,101135.21
2022-09-10T00:12:48.956Z,101129.95
2022-09-10T00:13:49.466Z,101133.82
2022-09-10T00:14:49.578Z,101138.5
2022-09-10T00:15:52.865Z,101138.23
2022-09-10T00:16:50.506Z,101137.3
2022-09-10T00:17:50.622Z,101136.41
2022-09-10T00:18:50.827Z,101135.31
2022-09-10T00:19:51.256Z,101135.87
2022-09-10T00:20:54.431Z,101135.53
2022-09-10T00:21:51.977Z,101137.12
2022-09-10T00:22:52.386Z,101134
2022-09-10T00:23:52.704Z,101131.81
2022-09-10T00:24:57.022Z,101135.36
2022-09-10T00:25:55.493Z,101135.94
2022-09-10T00:26:54.887Z,101134.49
2022-09-10T00:27:55.506Z,101133.84
2022-09-10T00:28:58.072Z,101134.91
2022-09-10T00:29:56.124Z,101131.67
2022-09-10T00:30:56.232Z,101132.5
2022-09-10T00:31:56.544Z,101132.58
2022-09-10T00:32:56.862Z,101135.31
2022-09-10T00:33:59.633Z,101136.49
2022-09-10T00:34:57.583Z,101136.08
2022-09-10T00:35:58.106Z,101137.78
2022-09-10T00:36:58.228Z,101137.06
2022-09-10T00:37:58.739Z,101133.56
2022-09-10T00:39:01.402Z,101136.19
2022-09-10T00:39:59.182Z,101135.59
2022-09-10T00:41:04.804Z,101137.12
2022-09-10T00:42:02.442Z,101134.8
2022-09-10T00:43:03.168Z,101135.23
2022-09-10T00:45:05.440Z,101130.88
2022-09-10T00:46:05.294Z,101134.58
2022-09-10T00:51:19.718Z,101136.5
2022-09-10T00:52:19.822Z,101141.23
2022-09-10T00:53:22.903Z,101143.86
2022-09-10T00:54:24.031Z,101137.89
2022-09-10T00:55:22.190Z,101136.3
2022-09-10T00:56:22.005Z,101137.39
2022-09-10T00:57:24.073Z,101141.33
2022-09-10T00:58:24.167Z,101141.58
2022-09-10T00:59:25.918Z,101142.89
2022-09-10T01:00:23.559Z,101139.39
2022-09-10T01:01:23.979Z,101140.95
2022-09-10T01:02:25.724Z,101134.98
2022-09-10T01:03:25.803Z,101137.7
2022-09-10T01:04:24.821Z,101139.31
2022-09-10T01:05:26.459Z,101140.57
2022-09-10T01:06:25.440Z,101133.57
2022-09-10T01:07:28.625Z,101132.12
2022-09-10T01:08:26.172Z,101126.51
2022-09-10T01:09:27.512Z,101127.41
2022-09-10T01:10:31.210Z,101126.92
2022-09-10T01:32:34.788Z,101115.17
2022-09-10T01:36:37.206Z,101109.1
2022-09-10T01:37:38.139Z,101112.03
2022-09-10T01:38:38.984Z,101111.51
2022-09-10T01:39:39.386Z,101109.38
2022-09-10T01:40:37.854Z,101106.25
2022-09-10T01:41:37.954Z,101106.58
2022-09-10T01:42:40.945Z,101109.45
2022-09-10T01:43:38.493Z,101113.12
2022-09-10T02:00:21.696Z,101108.17
2022-09-10T02:01:26.641Z,101111.4
2022-09-10T02:03:27.152Z,101105.88
2022-09-10T02:04:27.431Z,101109.75
2022-09-10T02:05:29.320Z,101104.96
2022-09-10T02:06:30.541Z,101105.39
2022-09-10T02:07:29.526Z,101106.41
2022-09-10T02:09:30.462Z,101106.13
2022-09-10T02:10:30.891Z,101104.08
2022-09-10T02:11:31.828Z,101107.5
2022-09-10T02:12:31.203Z,101102.91
2022-09-10T02:13:32.541Z,101104.11
2022-09-10T02:14:31.636Z,101102.71
2022-09-10T02:15:32.863Z,101101.34
2022-09-10T02:17:37.810Z,101102.54
2022-09-10T02:18:38.179Z,101101.02
2022-09-10T02:19:36.063Z,101095.81
2022-09-10T02:20:37.055Z,101097.87
2022-09-10T02:21:38.191Z,101097.66
2022-09-10T02:22:40.381Z,101100.89
2022-09-10T02:24:39.374Z,101102.19
2022-09-10T02:25:39.892Z,101097.59
2022-09-10T02:27:42.055Z,101095.98
2022-09-10T02:28:43.178Z,101098.83
2022-09-10T02:29:42.685Z,101093.39
2022-09-10T02:30:42.896Z,101099.6
2022-09-10T02:31:43.658Z,101099.91
2022-09-10T02:32:43.520Z,101093.27
2022-09-10T02:33:43.725Z,101094.41
2022-09-10T02:34:44.149Z,101091.67
2022-09-10T02:35:45.043Z,101089.23
2022-09-10T02:36:44.972Z,101084.83
2022-09-10T02:37:45.396Z,101084.72
2022-09-10T02:38:45.812Z,101085.68
2022-09-10T02:39:46.051Z,101087.06
2022-09-10T02:40:47.981Z,101088.02
2022-09-10T02:41:46.517Z,101089.5
2022-09-10T02:42:47.573Z,101083.89
2022-09-10T02:43:47.171Z,101088.22
2022-09-10T02:44:47.501Z,101090.33
2022-09-10T02:45:47.975Z,101091.72
2022-09-10T02:46:48.221Z,101089.08
2022-09-10T02:47:48.434Z,101089.22
2022-09-10T02:48:48.947Z,101089.44
2022-09-10T02:49:49.164Z,101087.77
2022-09-10T02:50:49.689Z,101091.61
2022-09-10T02:51:50.101Z,101088.42
2022-09-10T02:52:50.310Z,101085.23
2022-09-10T02:53:50.944Z,101083.97
2022-09-10T02:54:50.929Z,101082.52
2022-09-10T02:55:51.242Z,101087.64
2022-09-10T02:56:51.559Z,101082.38
2022-09-10T02:57:51.891Z,101084.71
2022-09-10T02:58:52.093Z,101084.8
2022-09-10T02:59:53.036Z,101084.16
2022-09-10T03:00:52.854Z,101081.95
2022-09-10T03:01:53.129Z,101077.29
2022-09-10T03:02:53.441Z,101074.62
2022-09-10T03:03:56.414Z,101073.7
2022-09-10T03:04:54.174Z,101071.56
2022-09-10T03:05:54.688Z,101072.5
2022-09-10T03:06:54.795Z,101075.03
2022-09-10T03:07:55.122Z,101073.19
2022-09-10T03:08:55.649Z,101074.12
2022-09-10T03:09:55.840Z,101069.79
2022-09-10T03:10:56.155Z,101075.18
2022-09-10T03:11:56.367Z,101073.13
2022-09-10T03:12:56.682Z,101073.62
2022-09-10T03:13:57.101Z,101074.61
2022-09-10T03:14:57.726Z,101074.2
2022-09-10T03:15:58.167Z,101073.67
2022-09-10T03:16:58.277Z,101074.77
2022-09-10T03:17:58.466Z,101071.38
2022-09-10T03:18:58.872Z,101072.05
2022-09-10T03:19:59.184Z,101073.75
2022-09-10T03:22:00.542Z,101072.34
2022-09-10T03:23:00.754Z,101071.58
2022-09-10T03:24:03.207Z,101067.2
2022-09-10T03:25:02.390Z,101072.56
2022-09-10T03:26:02.890Z,101074.12
2022-09-10T03:27:03.500Z,101072.92
2022-09-10T03:28:03.708Z,101069.52
2022-09-10T03:29:03.852Z,101076.3
2022-09-10T03:30:04.701Z,101071.68
2022-09-10T03:31:05.731Z,101078.27
2022-09-10T03:32:05.412Z,101073.02
2022-09-10T03:33:05.001Z,101075.77
2022-09-10T03:34:05.531Z,101073.58
2022-09-10T03:35:06.345Z,101071.62
2022-09-10T03:36:06.864Z,101072.12
2022-09-10T03:37:06.426Z,101078.05
2022-09-10T03:38:06.671Z,101073.23
2022-09-10T03:39:07.304Z,101071.01
2022-09-10T03:40:08.716Z,101069.73
2022-09-10T03:41:07.893Z,101073.53
2022-09-10T03:42:08.143Z,101071.46
2022-09-10T03:43:08.343Z,101071.98
2022-09-10T03:44:09.074Z,101070.86
2022-09-10T03:45:11.023Z,101072.89
2022-09-10T03:46:09.289Z,101074.32
2022-09-10T03:47:10.022Z,101074.09
2022-09-10T03:48:10.125Z,101074.09
2022-09-10T03:49:10.344Z,101075.38
2022-09-10T03:50:10.751Z,101075.31
2022-09-10T03:51:11.164Z,101075.7
2022-09-10T03:52:11.331Z,101072.7
2022-09-10T03:53:15.136Z,101074.12
2022-09-10T03:54:12.385Z,101068.91
2022-09-10T03:55:12.732Z,101070.11
2022-09-10T03:56:13.132Z,101068.88
2022-09-10T03:57:13.674Z,101071.87
2022-09-10T03:58:14.805Z,101069.62
2022-09-10T03:59:14.100Z,101071.57
2022-09-10T04:00:15.122Z,101072.47
2022-09-10T04:01:15.394Z,101066.59
2022-09-10T04:02:15.655Z,101071.95
2022-09-10T04:03:15.551Z,101071.42
2022-09-10T04:04:15.770Z,101067.38
2022-09-10T04:05:16.378Z,101070.06
2022-09-10T04:06:16.585Z,101067.65
2022-09-10T04:07:16.899Z,101066.31
2022-09-10T04:08:17.224Z,101067.08
2022-09-10T04:09:17.632Z,101064.81
2022-09-10T04:10:18.063Z,101061.95
2022-09-10T04:11:18.069Z,101065.22
2022-09-10T04:12:18.596Z,101064.44
2022-09-10T04:13:18.895Z,101069.38
2022-09-10T04:14:19.203Z,101065.78
2022-09-10T04:15:21.055Z,101064.58
2022-09-10T04:16:20.404Z,101066.3
2022-09-10T04:17:20.150Z,101064.34
2022-09-10T04:18:20.561Z,101064.92
2022-09-10T04:19:20.769Z,101066.45
2022-09-10T04:20:24.879Z,101068.42
2022-09-10T04:21:22.231Z,101064.94
2022-09-10T04:22:22.737Z,101066.69
2022-09-10T04:23:23.740Z,101065.98
2022-09-10T04:24:23.151Z,101064.04
2022-09-10T04:25:24.221Z,101059.69
2022-09-10T04:26:24.093Z,101061.84
2022-09-10T04:27:24.622Z,101060.2
2022-09-10T04:28:24.723Z,101060.38
2022-09-10T04:29:25.451Z,101059.36
2022-09-10T04:30:25.354Z,101060.89
2022-09-10T04:31:25.644Z,101057.8
2022-09-10T04:32:26.074Z,101055.28
2022-09-10T04:33:26.505Z,101054.7
2022-09-10T04:34:26.698Z,101053.55
2022-09-10T04:35:26.917Z,101054.89
2022-09-10T04:36:27.441Z,101053.82
2022-09-10T04:37:28.055Z,101052.61
2022-09-10T04:38:28.954Z,101051.41
2022-09-10T04:39:28.547Z,101055.31
2022-09-10T04:40:28.660Z,101053.28
2022-09-10T04:41:28.942Z,101051.37
2022-09-10T04:42:29.728Z,101053.09
2022-09-10T04:43:29.836Z,101052.41
2022-09-10T04:44:30.046Z,101053.36
2022-09-10T04:45:30.383Z,101054.12
2022-09-10T04:46:30.773Z,101055.94
2022-09-10T04:47:30.984Z,101056.31
2022-09-10T04:48:33.039Z,101056.7
2022-09-10T04:49:31.923Z,101057.31
2022-09-10T04:50:32.036Z,101055.02
2022-09-10T04:51:32.445Z,101057.55
2022-09-10T04:52:33.174Z,101056.3
2022-09-10T04:53:33.172Z,101053.83
2022-09-10T04:54:33.589Z,101055.95
2022-09-10T04:55:34.815Z,101053.86
2022-09-10T04:56:34.222Z,101053.66
2022-09-10T04:57:34.538Z,101051.91
2022-09-10T04:58:38.710Z,101054.44
2022-09-10T04:59:36.299Z,101053.3
2022-09-10T05:00:36.805Z,101054.16
2022-09-10T05:01:37.434Z,101056.42
2022-09-10T05:02:37.532Z,101055.2
2022-09-10T05:03:38.110Z,101054.56
2022-09-10T05:04:38.176Z,101054.34
2022-09-10T05:05:38.373Z,101055.67
2022-09-10T05:06:38.793Z,101056.45
2022-09-10T05:07:39.107Z,101060.09
2022-09-10T05:08:39.759Z,101057.94
2022-09-10T05:09:39.837Z,101050.91
2022-09-10T05:10:41.282Z,101052.72
2022-09-10T05:11:40.533Z,101056.08
2022-09-10T05:12:40.889Z,101056.59
2022-09-10T05:13:41.293Z,101051.02
2022-09-10T05:14:41.739Z,101052.25
2022-09-10T05:15:42.853Z,101054.78
2022-09-10T05:16:42.686Z,101050.62
2022-09-10T05:17:42.655Z,101052.17
2022-09-10T05:18:42.853Z,101053.12
2022-09-10T05:19:43.392Z,101042.52
2022-09-10T05:20:44.205Z,101044.74
2022-09-10T05:21:47.704Z,101050.55
2022-09-10T05:22:44.939Z,101049.38
2022-09-10T05:23:45.459Z,101049.41
2022-09-10T05:24:45.765Z,101051.66
2022-09-10T05:25:46.285Z,101046.28
2022-09-10T05:26:46.368Z,101049.2
2022-09-10T05:27:46.709Z,101049.33
2022-09-10T05:28:47.234Z,101045.02
2022-09-10T05:29:47.544Z,101051.81
2022-09-10T05:30:51.489Z,101051.7
2022-09-10T05:31:49.350Z,101051.53
2022-09-10T05:32:49.823Z,101047.69
2022-09-10T05:33:50.128Z,101049.46
2022-09-10T05:34:50.543Z,101047.45
2022-09-10T05:35:50.764Z,101037.92
2022-09-10T05:36:51.179Z,101042.44
2022-09-10T05:37:51.492Z,101042.91
2022-09-10T05:38:51.796Z,101039.67
2022-09-10T05:39:52.652Z,101041.05
2022-09-10T05:40:52.731Z,101044.97
2022-09-10T05:41:52.910Z,101043.13
2022-09-10T05:42:53.982Z,101038.14
2022-09-10T05:43:53.954Z,101041.22
2022-09-10T05:44:54.406Z,101037.16
2022-09-10T05:45:54.847Z,101037.41
2022-09-10T05:46:55.137Z,101038.33
2022-09-10T05:47:55.338Z,101033.08
2022-09-10T05:48:55.967Z,101035.25
2022-09-10T05:49:56.288Z,101037.5
2022-09-10T05:50:56.487Z,101034.88
2022-09-10T05:51:56.908Z,101032.61
2022-09-10T05:52:57.320Z,101033.64
2022-09-10T05:53:58.056Z,101035.48
2022-09-10T05:54:58.156Z,101034.02
2022-09-10T05:55:58.471Z,101033.72
2022-09-10T05:56:58.786Z,101035.56
2022-09-10T05:57:59.196Z,101035.99
2022-09-10T05:58:59.814Z,101037.88
2022-09-10T05:59:59.827Z,101038.88
2022-09-10T06:01:00.760Z,101038.89
2022-09-10T06:02:00.832Z,101036.5
2022-09-10T06:03:01.057Z,101036.85
2022-09-10T06:04:01.380Z,101037.25
2022-09-10T06:05:01.553Z,101033.45
2022-09-10T06:06:01.974Z,101039.77
2022-09-10T06:07:02.336Z,101035.55
2022-09-10T06:08:08.025Z,101035.61
2022-09-10T06:09:06.226Z,101034.55
2022-09-10T06:10:07.683Z,101033.34
2022-09-10T06:11:07.381Z,101037.55
2022-09-10T06:12:07.788Z,101035.8
2022-09-10T06:13:07.895Z,101036.31
2022-09-10T06:14:08.215Z,101037.55
2022-09-10T06:15:09.218Z,101038.8
2022-09-10T06:16:09.515Z,101039.77
2022-09-10T06:17:09.264Z,101038.12
2022-09-10T06:18:09.984Z,101036.19
2022-09-10T06:19:10.187Z,101034.94
2022-09-10T06:20:10.705Z,101038.09
2022-09-10T06:22:14.406Z,101035.98
2022-09-10T06:23:18.100Z,101042.36
2022-09-10T06:24:15.754Z,101042.47
2022-09-10T06:25:16.071Z,101040.7
2022-09-10T06:26:17.722Z,101040.94
2022-09-10T06:27:16.605Z,101041.73
2022-09-10T06:28:17.014Z,101039.41
2022-09-10T06:29:18.103Z,101039.12
2022-09-10T06:30:17.982Z,101041.53
2022-09-10T06:31:18.249Z,101040.28
2022-09-10T06:32:18.464Z,101041.34
2022-09-10T06:33:19.083Z,101041.23
2022-09-10T06:34:19.383Z,101040.06
2022-09-10T06:35:19.720Z,101037.93
2022-09-10T06:36:20.231Z,101040.88
2022-09-10T06:37:20.651Z,101040.32
2022-09-10T06:38:21.175Z,101038.45
2022-09-10T06:39:21.278Z,101036.79
2022-09-10T06:40:22.007Z,101037.77
2022-09-10T06:41:22.410Z,101034.09
2022-09-10T06:42:22.419Z,101037.25
2022-09-10T06:43:23.764Z,101038.11
2022-09-10T06:44:23.445Z,101037.68
2022-09-10T06:45:23.762Z,101036.64
2022-09-10T06:46:57.198Z,101038.88
2022-09-10T06:48:49.611Z,101036.64
2022-09-10T06:49:31.181Z,101034.67
2022-09-10T06:50:31.681Z,101034.06
2022-09-10T06:51:32.103Z,101033.91
2022-09-10T06:52:32.324Z,101038.03
2022-09-10T06:53:32.631Z,101036.95
2022-09-10T06:54:33.047Z,101035.2
2022-09-10T06:55:35.510Z,101034.59
2022-09-10T06:56:34.087Z,101035.63
2022-09-10T06:57:34.305Z,101033.25
2022-09-10T06:58:35.739Z,101031.22
2022-09-10T06:59:35.227Z,101033.94
2022-09-10T07:00:35.755Z,101031.86
2022-09-10T07:01:36.305Z,101031.86
2022-09-10T07:02:36.443Z,101032.94
2022-09-10T07:03:37.100Z,101034.05
2022-09-10T07:04:37.085Z,101034.58
2022-09-10T07:05:37.727Z,101029.23
2022-09-10T07:06:38.368Z,101033.45
2022-09-10T07:07:38.313Z,101033.98
2022-09-10T07:08:39.365Z,101033.23
2022-09-10T07:09:39.172Z,101037.58
2022-09-10T07:10:40.336Z,101036
2022-09-10T07:11:41.697Z,101034.5
2022-09-10T07:12:40.524Z,101036.06
2022-09-10T07:13:42.294Z,101034.12
2022-09-10T07:14:41.169Z,101034.83
2022-09-10T07:16:43.655Z,101037.84
2022-09-10T07:17:43.948Z,101034.11
2022-09-10T07:18:44.275Z,101035.62
2022-09-10T07:19:44.693Z,101034.64
2022-09-10T07:20:45.832Z,101035.33
2022-09-10T07:21:45.365Z,101034.25
2022-09-10T07:22:46.030Z,101041.23
2022-09-10T07:23:46.915Z,101038.23
2022-09-10T07:24:48.307Z,101037.62
2022-09-10T07:25:47.906Z,101039.81
2022-09-10T07:26:47.706Z,101038.16
2022-09-10T07:27:47.927Z,101039.18
2022-09-10T07:28:48.944Z,101036.54
2022-09-10T07:29:48.713Z,101035.81
2022-09-10T07:30:49.314Z,101035.12
2022-09-10T07:31:49.574Z,101035.53
2022-09-10T07:32:50.204Z,101036.37
2022-09-10T07:33:51.136Z,101035.86
2022-09-10T07:34:50.934Z,101034.81
2022-09-10T07:35:51.344Z,101037.23
2022-09-10T07:36:51.652Z,101032.89
2022-09-10T07:37:52.184Z,101035.69
2022-09-10T07:38:54.531Z,101032.91
2022-09-10T07:39:53.021Z,101034.47
2022-09-10T07:40:53.626Z,101036.22
2022-09-10T07:41:53.766Z,101032.59
2022-09-10T07:42:56.920Z,101031.3
2022-09-10T07:43:54.675Z,101037.31
2022-09-10T07:44:55.387Z,101038.54
2022-09-10T07:45:55.877Z,101033.1
2022-09-10T07:46:56.019Z,101032.52
2022-09-10T07:47:56.205Z,101028.19
2022-09-10T07:49:00.749Z,101030.75
2022-09-10T07:49:58.200Z,101031.07
2022-09-10T07:52:01.376Z,101023.56
2022-09-10T07:53:01.687Z,101025.31
2022-09-10T07:54:02.003Z,101027.19
2022-09-10T07:55:02.524Z,101025.95
2022-09-10T07:56:05.616Z,101024.8
2022-09-10T07:57:03.768Z,101027
2022-09-10T07:58:03.978Z,101023.88
2022-09-10T07:59:04.192Z,101024.28
2022-09-10T08:00:07.263Z,101026.77
2022-09-10T08:02:08.875Z,101023.71
2022-09-10T08:03:07.488Z,101021.56
2022-09-10T08:04:08.013Z,101024.35
2022-09-10T08:05:09.038Z,101025.95
2022-09-10T08:06:09.669Z,101019.57
2022-09-10T08:07:09.434Z,101019.33
2022-09-10T08:08:09.889Z,101019.33
2022-09-10T08:09:10.505Z,101019.3
2022-09-10T08:10:11.427Z,101019.34
2022-09-10T08:12:12.973Z,101012.81
2022-09-10T08:13:13.185Z,101013.61
2022-09-10T08:14:13.767Z,101013.94
2022-09-10T08:15:14.130Z,101012.55
2022-09-10T08:16:17.871Z,101010.02
2022-09-10T08:17:15.567Z,101012.74
2022-09-10T08:18:15.745Z,101013.88
2022-09-10T08:19:16.713Z,101009.68
2022-09-10T08:20:17.020Z,101009.11
2022-09-10T08:21:18.828Z,101004.98
2022-09-10T08:22:17.959Z,101005.22
2022-09-10T08:23:18.271Z,101008.39
2022-09-10T08:24:18.684Z,101008.47
2022-09-10T08:25:18.796Z,101006.36
2022-09-10T08:26:19.826Z,101005.81
2022-09-10T08:27:20.857Z,101006.65
2022-09-10T08:28:25.233Z,101008.12
2022-09-10T08:29:23.121Z,101005.08
2022-09-10T08:30:23.642Z,101002.77
2022-09-10T08:31:25.031Z,101002.53
2022-09-10T08:32:24.786Z,100997.62
2022-09-10T08:33:25.102Z,101000.92
2022-09-10T08:34:25.611Z,100997.21
2022-09-10T08:35:26.040Z,100997.48
2022-09-10T08:36:26.228Z,100999.82
2022-09-10T08:37:27.954Z,100997.77
2022-09-10T08:38:30.926Z,100997.15
2022-09-10T08:39:28.371Z,100999.25
2022-09-10T08:40:28.882Z,101000.92
2022-09-10T08:45:40.104Z,100990.48
2022-09-10T08:48:48.234Z,100990.69
2022-09-10T08:50:57.424Z,100997.48
2022-09-10T08:52:01.564Z,100991.25
2022-09-10T09:00:26.198Z,100988.42
2022-09-10T09:07:41.403Z,100978.47
2022-09-10T09:08:46.723Z,100983.5
2022-09-10T09:09:44.277Z,100977.82
2022-09-10T09:20:19.163Z,100973.7
2022-09-10T09:23:23.078Z,100972.7
2022-09-10T09:26:35.170Z,100977.15
2022-09-10T09:27:32.215Z,100974.19
2022-09-10T09:32:42.480Z,100966.45
2022-09-10T09:33:41.480Z,100968.09
2022-09-10T09:36:52.745Z,100970.44
2022-09-10T09:38:03.301Z,100974.67
2022-09-10T09:38:50.975Z,100969.72
2022-09-10T09:43:15.014Z,100966.19
2022-09-10T09:46:18.105Z,100964.48
2022-09-10T09:47:16.780Z,100960.47
2022-09-10T09:48:19.754Z,100964.41
2022-09-10T09:49:17.611Z,100963.66
2022-09-10T09:50:17.856Z,100965.88
2022-09-10T09:51:19.158Z,100961.77
2022-09-10T09:52:23.365Z,100957.41
2022-09-10T09:53:26.331Z,100953.81
2022-09-10T09:56:36.286Z,100959.04
2022-09-10T09:57:33.635Z,100960.13
2022-09-10T09:58:36.831Z,100958.27
2022-09-10T09:59:35.071Z,100954.33
2022-09-10T10:00:38.058Z,100954.23
2022-09-10T10:01:42.037Z,100952.75
2022-09-10T10:02:39.410Z,100954.53
2022-09-10T10:05:44.024Z,100948.14
2022-09-10T10:06:53.663Z,100950.7
2022-09-10T10:07:48.648Z,100949.69
2022-09-10T10:08:55.105Z,100949.47
2022-09-10T10:09:49.088Z,100948.38
2022-09-10T10:10:52.122Z,100945.91
2022-09-10T10:12:54.430Z,100949.19
2022-09-10T10:13:52.906Z,100948.7
2022-09-10T10:14:53.610Z,100943.16
2022-09-10T10:15:53.768Z,100943.3
2022-09-10T10:16:59.957Z,100937.62
2022-09-10T10:17:58.243Z,100940.98
2022-09-10T10:18:58.658Z,100941.08
2022-09-10T10:29:24.525Z,100925.94
2022-09-10T10:30:24.857Z,100922.31
2022-09-10T10:46:11.926Z,100907.44
2022-09-10T11:00:58.413Z,100882.33
2022-09-10T11:02:00.002Z,100872.38
2022-09-10T11:05:07.786Z,100867.67
2022-09-10T11:11:30.038Z,100861.78
2022-09-10T11:20:42.585Z,100859.72
2022-09-10T11:21:48.634Z,100854.55
2022-09-10T11:22:49.347Z,100849.39
2022-09-10T11:23:55.902Z,100847.95
2022-09-10T11:24:49.061Z,100846.55
2022-09-10T11:30:10.195Z,100840.77
2022-09-10T11:31:09.194Z,100842.69
2022-09-10T11:36:27.937Z,100833.78
2022-09-10T11:41:31.451Z,100826.05
2022-09-10T11:51:02.352Z,100818.22
2022-09-10T11:52:02.642Z,100815.98
2022-09-10T11:53:01.172Z,100820.09
2022-09-10T11:54:03.581Z,100815.75
2022-09-10T11:55:03.691Z,100810.98
2022-09-10T12:12:49.276Z,100792.91
2022-09-10T12:13:49.082Z,100795.86
2022-09-10T12:14:49.487Z,100788.27
2022-09-10T12:18:59.084Z,100781.7
2022-09-10T12:20:00.583Z,100781.91
2022-09-10T12:23:06.844Z,100772.78
2022-09-10T12:26:14.024Z,100765.75
2022-09-10T12:27:18.966Z,100769.7
2022-09-10T12:31:23.781Z,100768.73
2022-09-10T12:32:29.234Z,100766.19
2022-09-10T12:34:28.016Z,100763.62
2022-09-10T12:37:31.217Z,100760.62
2022-09-10T12:39:35.670Z,100763
2022-09-10T12:40:46.902Z,100754.69
2022-09-10T12:42:41.179Z,100750.05
2022-09-10T12:44:45.696Z,100752.41
2022-09-10T12:46:48.574Z,100748.34
2022-09-10T12:47:49.287Z,100743.64
2022-09-10T12:50:03.207Z,100747.52
2022-09-10T12:50:59.754Z,100745.84
2022-09-10T12:52:00.795Z,100747.62
2022-09-10T13:03:17.561Z,100739.89
2022-09-10T13:04:28.536Z,100736.64
2022-09-10T13:05:24.930Z,100738.55
2022-09-10T13:06:17.566Z,100737.95
2022-09-10T13:07:24.030Z,100735.17
2022-09-10T13:08:34.079Z,100734.3
2022-09-10T13:10:27.332Z,100736.16
2022-09-10T13:11:26.410Z,100731.08
2022-09-10T13:12:27.649Z,100727.42
2022-09-10T13:15:38.916Z,100722.73
2022-09-10T13:16:39.964Z,100721.93
2022-09-10T13:18:41.613Z,100724.34
2022-09-10T13:20:43.465Z,100717.61
2022-09-10T13:23:49.735Z,100717.17
2022-09-10T13:25:50.667Z,100717.66
2022-09-10T13:26:51.251Z,100716.46
2022-09-10T13:27:49.357Z,100717.18
2022-09-10T13:47:47.642Z,100694.05
2022-09-10T13:48:52.663Z,100689.66
2022-09-10T13:51:58.837Z,100690.88
2022-09-10T13:52:59.656Z,100685.23
2022-09-10T13:55:00.846Z,100687.34
2022-09-10T13:56:05.711Z,100684.45
2022-09-10T13:59:06.921Z,100681.73
2022-09-10T14:01:08.207Z,100680.69
2022-09-10T14:02:08.778Z,100676.17
2022-09-10T14:06:24.006Z,100672.55
2022-09-10T14:07:25.239Z,100670.75
2022-09-10T14:08:29.858Z,100667.77
2022-09-10T14:09:28.024Z,100666.42
2022-09-10T14:10:28.544Z,100662.7
2022-09-10T14:11:35.200Z,100662.02
2022-09-10T14:12:35.523Z,100660.31
2022-09-10T14:15:39.344Z,100650.91
2022-09-10T14:17:44.049Z,100650.91
2022-09-10T14:20:46.736Z,100652.48
2022-09-10T14:21:51.031Z,100651.06
2022-09-10T14:22:51.656Z,100649.08
2022-09-10T14:23:49.370Z,100648.73
2022-09-10T14:25:01.568Z,100645
2022-09-10T14:38:35.846Z,100653.61
2022-09-10T14:39:28.623Z,100650.96
2022-09-10T14:40:36.719Z,100649.31
2022-09-10T14:41:32.118Z,100647.84
2022-09-10T14:44:42.488Z,100647.62
2022-09-10T14:45:43.304Z,100646.44
2022-09-10T14:47:51.921Z,100647.51
2022-09-10T14:49:46.608Z,100648.77
2022-09-10T14:50:46.715Z,100642.74
2022-09-10T14:51:47.052Z,100645.2
2022-09-10T14:52:48.574Z,100645.09
2022-09-10T14:53:55.863Z,100642.48
2022-09-10T14:54:48.560Z,100642.76
2022-09-10T14:55:48.899Z,100641.33
2022-09-10T14:56:53.176Z,100643.3
2022-09-10T14:57:52.731Z,100643.89
2022-09-10T14:59:57.320Z,100644.28
2022-09-10T15:00:55.057Z,100645.79
2022-09-10T15:01:55.751Z,100639.94
2022-09-10T15:02:55.918Z,100640.77
2022-09-10T15:03:56.944Z,100642.4
2022-09-10T15:04:57.544Z,100645.02
2022-09-10T15:05:57.773Z,100639.11
2022-09-10T15:06:59.932Z,100634.94
2022-09-10T15:07:58.804Z,100636.05
2022-09-10T15:08:59.129Z,100638.08
2022-09-10T15:09:59.546Z,100635.02
2022-09-10T15:11:00.022Z,100631.34
2022-09-10T15:13:04.575Z,100629.88
2022-09-10T15:14:03.564Z,100625.23
2022-09-10T15:15:04.694Z,100631.51
2022-09-10T15:16:04.775Z,100627.61
2022-09-10T15:17:05.642Z,100630.28
2022-09-10T15:19:09.282Z,100630.09
2022-09-10T15:21:15.182Z,100625.25
2022-09-10T15:23:13.145Z,100629
2022-09-10T15:24:17.035Z,100626.33
2022-09-10T15:26:15.856Z,100632.88
2022-09-10T15:27:16.143Z,100630.43
2022-09-10T15:28:16.552Z,100627.28
2022-09-10T15:29:17.275Z,100625.48
2022-09-10T15:30:17.285Z,100622.47
2022-09-10T15:31:17.926Z,100621.45
2022-09-10T15:32:17.918Z,100620.95
2022-09-10T15:33:19.043Z,100618.23
2022-09-10T15:34:18.841Z,100618.06
2022-09-10T15:35:19.370Z,100618.37
2022-09-10T15:36:19.773Z,100623.59
2022-09-10T15:37:20.097Z,100624.37
2022-09-10T15:38:20.922Z,100621.19
2022-09-10T15:39:21.133Z,100622.26
2022-09-10T15:40:21.547Z,100623.97
2022-09-10T15:41:22.577Z,100620.89
2022-09-10T15:42:22.377Z,100622.62
2022-09-10T15:43:22.797Z,100617.56
2022-09-10T15:44:23.418Z,100616.62
2022-09-10T15:45:24.059Z,100616.76
2022-09-10T15:46:24.844Z,100615.52
2022-09-10T15:47:24.662Z,100613.59
2022-09-10T15:48:25.286Z,100616.38
2022-09-10T15:49:25.467Z,100614.19
2022-09-10T15:50:25.916Z,100615.79
2022-09-10T15:51:26.497Z,100615.31
2022-09-10T15:52:26.651Z,100615.92
2022-09-10T15:53:28.178Z,100614.28
2022-09-10T15:54:28.194Z,100616.21
2022-09-10T15:55:27.995Z,100615.27
2022-09-10T15:56:28.509Z,100615.09
2022-09-10T15:57:28.933Z,100621.23
2022-09-10T15:58:30.062Z,100618.32
2022-09-10T15:59:29.975Z,100618.16
2022-09-10T16:00:30.287Z,100617.7
2022-09-10T16:01:30.633Z,100618.16
2022-09-10T16:02:31.364Z,100619.44
2022-09-10T16:03:32.038Z,100616.28
2022-09-10T16:04:35.784Z,100620.13
2022-09-10T16:05:34.206Z,100618.47
2022-09-10T16:06:39.750Z,100619.21
2022-09-10T16:07:37.386Z,100617.53
2022-09-10T16:08:38.019Z,100613.23
2022-09-10T16:09:38.525Z,100614.84
2022-09-10T16:10:39.876Z,100610.34
2022-09-10T16:11:41.119Z,100608.78
2022-09-10T16:12:39.578Z,100607.72
2022-09-10T16:13:39.991Z,100607.6
2022-09-10T16:14:40.516Z,100603.16
2022-09-10T16:15:40.767Z,100604.8
2022-09-10T16:16:41.560Z,100604.16
2022-09-10T16:17:41.556Z,100604.33
2022-09-10T16:18:42.174Z,100602.3
2022-09-10T16:19:42.486Z,100602.38
2022-09-10T16:20:42.904Z,100596.52
2022-09-10T16:21:43.626Z,100600.45
2022-09-10T16:22:43.734Z,100595.95
2022-09-10T16:23:45.447Z,100595.44
2022-09-10T16:24:44.571Z,100594.06
2022-09-10T16:25:54.513Z,100593.78
2022-09-10T16:26:47.041Z,100590.86
2022-09-10T16:27:47.462Z,100591.81